Time;durP1;ratioP1;P1;durP2;ratioP2;P2;SDS_P1;SDS_P2;PMS_P1;PMS_P2;Temp;Humidity;BMP_temperature;BMP_pressure;BME280_temperature;BME280_humidity;BME280_pressure;Samples;Min_cycle;Max_cycle;Signal;HPM_P1;HPM_P2
2021/08/07 00:01:50;;;;;;;3.57;2.03;;;;;;;;;;5039897;28;20182;-61
2021/08/07 00:04:16;;;;;;;1.50;1.40;;;;;;;;;;5034146;28;20220;-59
2021/08/07 00:06:43;;;;;;;1.30;1.20;;;;;;;;;;5029683;28;20194;-59
2021/08/07 00:09:09;;;;;;;1.67;1.43;;;;;;;;;;5036657;28;20296;-59
2021/08/07 00:11:35;;;;;;;1.67;1.30;;;;;;;;;;5050880;28;20200;-60
2021/08/07 00:14:01;;;;;;;1.67;1.40;;;;;;;;;;5039395;28;20294;-59
2021/08/07 00:16:27;;;;;;;2.43;1.30;;;;;;;;;;5041875;28;20619;-59
2021/08/07 00:18:53;;;;;;;1.53;1.17;;;;;;;;;;5030412;28;20201;-58
2021/08/07 00:21:19;;;;;;;1.53;1.30;;;;;;;;;;5049704;28;20239;-60
2021/08/07 00:23:45;;;;;;;1.93;1.37;;;;;;;;;;5042407;28;20182;-59
2021/08/07 00:26:11;;;;;;;2.70;1.57;;;;;;;;;;5040063;28;20178;-59
2021/08/07 00:28:37;;;;;;;3.00;1.50;;;;;;;;;;5035791;28;20482;-60
2021/08/07 00:31:03;;;;;;;3.80;1.87;;;;;;;;;;5045983;28;20654;-58
2021/08/07 00:33:30;;;;;;;1.97;1.60;;;;;;;;;;5037653;28;20196;-60
2021/08/07 00:35:56;;;;;;;2.70;1.40;;;;;;;;;;5030817;28;20676;-59
2021/08/07 00:38:22;;;;;;;1.77;1.47;;;;;;;;;;5033648;28;20620;-59
2021/08/07 00:40:48;;;;;;;4.30;1.33;;;;;;;;;;5029107;28;20263;-59
2021/08/07 00:43:14;;;;;;;2.40;1.40;;;;;;;;;;5031273;28;20186;-60
2021/08/07 00:45:40;;;;;;;1.30;1.20;;;;;;;;;;5035253;28;20559;-59
2021/08/07 00:48:08;;;;;;;2.60;1.57;;;;;;;;;;5040809;28;20786;-59
2021/08/07 00:50:34;;;;;;;1.30;1.20;;;;;;;;;;5030645;28;20201;-59
2021/08/07 00:53:00;;;;;;;1.70;1.60;;;;;;;;;;5033050;28;20201;-59
2021/08/07 00:55:26;;;;;;;1.47;1.37;;;;;;;;;;5018666;28;20223;-59
2021/08/07 00:57:52;;;;;;;1.67;1.57;;;;;;;;;;5047116;28;20186;-59
2021/08/07 01:00:18;;;;;;;2.53;1.33;;;;;;;;;;5031491;28;20186;-58
2021/08/07 01:02:48;;;;;;;1.87;1.50;;;;;;;;;;5030755;28;20192;-61
2021/08/07 01:05:25;;;;;;;1.60;1.50;;;;;;;;;;5030864;28;20212;-58
2021/08/07 01:08:13;;;;;;;1.33;1.23;;;;;;;;;;5031205;28;20185;-59
2021/08/07 01:10:53;;;;;;;1.20;1.10;;;;;;;;;;5043503;28;20215;-60
2021/08/07 01:13:45;;;;;;;1.57;1.47;;;;;;;;;;5037939;28;20793;-59
2021/08/07 01:16:12;;;;;;;1.67;1.43;;;;;;;;;;5038592;28;20213;-59
2021/08/07 01:18:39;;;;;;;6.27;1.60;;;;;;;;;;5034542;28;20185;-59
2021/08/07 01:21:09;;;;;;;1.60;1.50;;;;;;;;;;5043537;28;20211;-59
2021/08/07 01:23:41;;;;;;;1.83;1.60;;;;;;;;;;5033300;28;20185;-61
2021/08/07 01:26:08;;;;;;;1.83;1.60;;;;;;;;;;5029383;28;20644;-59
2021/08/07 01:28:35;;;;;;;3.30;1.77;;;;;;;;;;5025903;28;20201;-58
2021/08/07 01:31:03;;;;;;;1.40;1.30;;;;;;;;;;5033691;28;20197;-59
2021/08/07 01:33:29;;;;;;;2.10;1.50;;;;;;;;;;5035033;28;20197;-60
2021/08/07 01:35:56;;;;;;;1.97;1.23;;;;;;;;;;5049693;28;20208;-59
2021/08/07 01:38:22;;;;;;;2.20;1.50;;;;;;;;;;5033769;28;20178;-59
2021/08/07 01:40:48;;;;;;;1.50;1.30;;;;;;;;;;5029028;28;20182;-59
2021/08/07 01:43:14;;;;;;;1.73;1.43;;;;;;;;;;5038816;28;20174;-58
2021/08/07 01:45:41;;;;;;;1.53;1.40;;;;;;;;;;5038274;28;20193;-61
2021/08/07 01:48:10;;;;;;;1.50;1.20;;;;;;;;;;5033304;28;20186;-60
2021/08/07 01:50:39;;;;;;;1.40;1.30;;;;;;;;;;5031301;28;20262;-60
2021/08/07 01:53:09;;;;;;;1.47;1.23;;;;;;;;;;5030000;28;20193;-60
2021/08/07 01:55:37;;;;;;;1.43;1.33;;;;;;;;;;5028199;28;20305;-59
2021/08/07 01:58:08;;;;;;;2.10;1.37;;;;;;;;;;5033881;28;20188;-58
2021/08/07 02:00:35;;;;;;;1.67;1.30;;;;;;;;;;5046681;28;20264;-60
2021/08/07 02:03:02;;;;;;;1.67;1.57;;;;;;;;;;5037436;28;20540;-59
2021/08/07 02:05:28;;;;;;;1.60;1.47;;;;;;;;;;5030067;28;20835;-58
2021/08/07 02:07:54;;;;;;;1.50;1.37;;;;;;;;;;5031559;28;20444;-58
2021/08/07 02:10:21;;;;;;;1.57;1.40;;;;;;;;;;5038842;28;20193;-60
2021/08/07 02:12:47;;;;;;;1.43;1.33;;;;;;;;;;5037837;28;20194;-59
2021/08/07 02:15:16;;;;;;;1.60;1.50;;;;;;;;;;5047227;28;20196;-59
2021/08/07 02:17:43;;;;;;;1.97;1.60;;;;;;;;;;5038062;28;20192;-58
2021/08/07 02:20:13;;;;;;;1.87;1.43;;;;;;;;;;5025330;28;20183;-58
2021/08/07 02:22:39;;;;;;;3.53;1.60;;;;;;;;;;5034271;28;20206;-59
2021/08/07 02:25:05;;;;;;;2.33;1.70;;;;;;;;;;5033554;28;20177;-58
2021/08/07 02:27:32;;;;;;;2.67;1.47;;;;;;;;;;5031078;28;20572;-59
2021/08/07 02:29:58;;;;;;;2.00;1.40;;;;;;;;;;5032976;28;20206;-59
2021/08/07 02:32:24;;;;;;;4.93;2.27;;;;;;;;;;5032121;28;20530;-59
2021/08/07 02:34:50;;;;;;;1.70;1.40;;;;;;;;;;5037662;28;20192;-59
2021/08/07 02:37:17;;;;;;;2.20;1.57;;;;;;;;;;5044098;28;20206;-59
2021/08/07 02:39:43;;;;;;;1.33;1.23;;;;;;;;;;5028662;28;20178;-59
2021/08/07 02:42:09;;;;;;;1.37;1.27;;;;;;;;;;5031513;28;20224;-59
2021/08/07 02:44:36;;;;;;;2.60;1.50;;;;;;;;;;5034436;28;20185;-59
2021/08/07 02:47:02;;;;;;;1.50;1.40;;;;;;;;;;5037444;28;20243;-59
2021/08/07 02:49:28;;;;;;;3.17;1.40;;;;;;;;;;5032542;28;20186;-60
2021/08/07 02:51:55;;;;;;;1.53;1.43;;;;;;;;;;5043179;28;20193;-59
2021/08/07 02:54:21;;;;;;;1.80;1.47;;;;;;;;;;5029775;28;20210;-59
2021/08/07 02:56:47;;;;;;;1.50;1.13;;;;;;;;;;5032389;28;20238;-59
2021/08/07 02:59:13;;;;;;;1.67;1.57;;;;;;;;;;5037394;28;20178;-59
2021/08/07 03:01:40;;;;;;;1.83;1.50;;;;;;;;;;5029062;28;20178;-59
2021/08/07 03:04:06;;;;;;;1.43;1.33;;;;;;;;;;5032943;28;20182;-59
2021/08/07 03:06:32;;;;;;;1.50;1.40;;;;;;;;;;5034763;28;20190;-60
2021/08/07 03:08:58;;;;;;;2.17;1.70;;;;;;;;;;5036992;28;20185;-59
2021/08/07 03:11:24;;;;;;;1.67;1.40;;;;;;;;;;5044435;28;20207;-59
2021/08/07 03:13:50;;;;;;;2.60;1.30;;;;;;;;;;5038744;28;20296;-59
2021/08/07 03:16:16;;;;;;;1.67;1.50;;;;;;;;;;5033037;28;20197;-59
2021/08/07 03:18:42;;;;;;;2.07;1.37;;;;;;;;;;5038972;28;20191;-62
2021/08/07 03:21:08;;;;;;;1.10;1.10;;;;;;;;;;5030893;28;20269;-59
2021/08/07 03:23:34;;;;;;;1.57;1.47;;;;;;;;;;5040697;28;20248;-60
2021/08/07 03:26:00;;;;;;;1.63;1.30;;;;;;;;;;5050903;28;20185;-59
2021/08/07 03:28:26;;;;;;;2.20;1.40;;;;;;;;;;5032564;28;20181;-60
2021/08/07 03:30:52;;;;;;;2.17;1.43;;;;;;;;;;5038105;28;20185;-60
2021/08/07 03:33:18;;;;;;;3.23;1.60;;;;;;;;;;5035806;28;20192;-59
2021/08/07 03:35:44;;;;;;;2.33;1.67;;;;;;;;;;5047016;28;20263;-59
2021/08/07 03:38:11;;;;;;;2.40;1.40;;;;;;;;;;5042430;28;20227;-59
2021/08/07 03:40:37;;;;;;;1.53;1.43;;;;;;;;;;5040569;28;20226;-59
2021/08/07 03:43:03;;;;;;;1.88;1.35;;;;;;;;;;5046591;28;20853;-59
2021/08/07 03:45:29;;;;;;;1.87;1.30;;;;;;;;;;5029775;28;20537;-59
2021/08/07 03:47:55;;;;;;;1.80;1.60;;;;;;;;;;5035782;28;20516;-58
2021/08/07 03:50:21;;;;;;;1.97;1.40;;;;;;;;;;5027630;28;20205;-59
2021/08/07 03:52:48;;;;;;;1.40;1.30;;;;;;;;;;5031523;28;20196;-59
2021/08/07 03:55:14;;;;;;;1.50;1.40;;;;;;;;;;5032340;28;20240;-59
2021/08/07 03:57:59;;;;;;;1.77;1.33;;;;;;;;;;5040097;28;20182;-59
2021/08/07 04:00:30;;;;;;;1.70;1.40;;;;;;;;;;5030488;28;20158;-59
2021/08/07 04:02:56;;;;;;;1.40;1.30;;;;;;;;;;5029651;28;20244;-60
2021/08/07 04:05:22;;;;;;;1.53;1.40;;;;;;;;;;5029075;28;20194;-59
2021/08/07 04:07:48;;;;;;;2.23;1.67;;;;;;;;;;5034138;28;20690;-59
2021/08/07 04:10:16;;;;;;;2.67;1.57;;;;;;;;;;5030886;28;20201;-59
2021/08/07 04:12:42;;;;;;;2.10;1.33;;;;;;;;;;5030801;28;20188;-59
2021/08/07 04:15:09;;;;;;;1.57;1.30;;;;;;;;;;5030603;28;20188;-60
2021/08/07 04:17:39;;;;;;;1.47;1.37;;;;;;;;;;5029495;28;20178;-59
2021/08/07 04:20:06;;;;;;;1.60;1.50;;;;;;;;;;5028431;28;20244;-58
2021/08/07 04:22:32;;;;;;;1.43;1.33;;;;;;;;;;5035708;28;20177;-59
2021/08/07 04:24:58;;;;;;;1.50;1.40;;;;;;;;;;5032259;28;20181;-60
2021/08/07 04:27:25;;;;;;;1.60;1.50;;;;;;;;;;5035900;28;20185;-58
2021/08/07 04:29:51;;;;;;;3.37;1.43;;;;;;;;;;5033376;28;20262;-59
2021/08/07 04:32:17;;;;;;;2.07;1.40;;;;;;;;;;5035821;28;20190;-59
2021/08/07 04:34:44;;;;;;;2.17;1.57;;;;;;;;;;5039253;28;20203;-59
2021/08/07 04:37:10;;;;;;;2.13;1.77;;;;;;;;;;5035283;28;20200;-59
2021/08/07 04:39:37;;;;;;;1.90;1.60;;;;;;;;;;5041445;28;20177;-59
2021/08/07 04:42:03;;;;;;;1.53;1.43;;;;;;;;;;5040537;28;20286;-58
2021/08/07 04:44:29;;;;;;;1.80;1.57;;;;;;;;;;5028727;28;20181;-59
2021/08/07 04:46:55;;;;;;;2.73;1.63;;;;;;;;;;5030778;28;20206;-59
2021/08/07 04:49:21;;;;;;;1.70;1.60;;;;;;;;;;5036807;28;20209;-59
2021/08/07 04:51:47;;;;;;;1.73;1.63;;;;;;;;;;5027987;28;20182;-59
2021/08/07 04:54:13;;;;;;;2.40;1.90;;;;;;;;;;5029082;28;20248;-60
2021/08/07 04:56:40;;;;;;;2.23;1.80;;;;;;;;;;5042773;28;20278;-59
2021/08/07 04:59:06;;;;;;;2.33;1.87;;;;;;;;;;5039164;28;20274;-58
2021/08/07 05:01:32;;;;;;;3.70;1.97;;;;;;;;;;5044887;28;20636;-59
2021/08/07 05:03:58;;;;;;;2.27;1.90;;;;;;;;;;5035512;28;20185;-59
2021/08/07 05:06:24;;;;;;;2.27;1.70;;;;;;;;;;5030286;28;20190;-59
2021/08/07 05:08:50;;;;;;;1.93;1.73;;;;;;;;;;5037274;28;20208;-59
2021/08/07 05:11:16;;;;;;;2.30;1.73;;;;;;;;;;5029792;28;20185;-59
2021/08/07 05:13:42;;;;;;;3.60;1.87;;;;;;;;;;5037996;28;20177;-59
2021/08/07 05:16:09;;;;;;;3.23;2.13;;;;;;;;;;5030017;28;20207;-59
2021/08/07 05:18:35;;;;;;;2.33;1.90;;;;;;;;;;5037700;28;20640;-59
2021/08/07 05:21:01;;;;;;;1.73;1.60;;;;;;;;;;5039489;28;20232;-59
2021/08/07 05:23:27;;;;;;;3.37;1.70;;;;;;;;;;5035676;28;20582;-58
2021/08/07 05:25:53;;;;;;;2.10;1.90;;;;;;;;;;5028874;28;20194;-60
2021/08/07 05:28:19;;;;;;;2.47;1.90;;;;;;;;;;5027218;28;20189;-60
2021/08/07 05:30:45;;;;;;;3.03;1.80;;;;;;;;;;5027573;28;20569;-59
2021/08/07 05:33:12;;;;;;;2.00;1.80;;;;;;;;;;5026372;28;20204;-59
2021/08/07 05:35:38;;;;;;;1.80;1.57;;;;;;;;;;5023053;28;20634;-59
2021/08/07 05:38:04;;;;;;;1.93;1.80;;;;;;;;;;5023585;28;20682;-60
2021/08/07 05:40:30;;;;;;;3.97;2.00;;;;;;;;;;5026711;28;20182;-59
2021/08/07 05:42:56;;;;;;;3.13;1.80;;;;;;;;;;5027507;28;20543;-59
2021/08/07 05:45:23;;;;;;;1.63;1.53;;;;;;;;;;5028814;28;20581;-61
2021/08/07 05:47:49;;;;;;;2.33;1.50;;;;;;;;;;5029188;28;20220;-59
2021/08/07 05:50:15;;;;;;;1.57;1.47;;;;;;;;;;5023197;28;20182;-60
2021/08/07 05:52:42;;;;;;;2.70;1.97;;;;;;;;;;5034954;28;20258;-59
2021/08/07 05:55:09;;;;;;;1.97;1.40;;;;;;;;;;5033675;28;20879;-59
2021/08/07 05:57:35;;;;;;;2.13;1.50;;;;;;;;;;5039265;28;20186;-60
2021/08/07 06:00:02;;;;;;;2.20;1.43;;;;;;;;;;5027159;28;20189;-59
2021/08/07 06:02:32;;;;;;;2.30;1.67;;;;;;;;;;5040275;28;20204;-59
2021/08/07 06:04:58;;;;;;;2.20;1.70;;;;;;;;;;5033947;28;20177;-59
2021/08/07 06:07:24;;;;;;;2.90;1.80;;;;;;;;;;5042081;28;20196;-60
2021/08/07 06:09:51;;;;;;;2.70;1.70;;;;;;;;;;5025702;28;20182;-59
2021/08/07 06:12:17;;;;;;;2.50;1.70;;;;;;;;;;5015903;28;20201;-58
2021/08/07 06:14:43;;;;;;;2.67;1.90;;;;;;;;;;5028015;28;20182;-59
2021/08/07 06:17:09;;;;;;;2.60;1.80;;;;;;;;;;5027928;28;20206;-59
2021/08/07 06:19:36;;;;;;;2.13;1.80;;;;;;;;;;5039574;28;20200;-59
2021/08/07 06:22:02;;;;;;;3.17;2.13;;;;;;;;;;5045720;28;20186;-59
2021/08/07 06:24:29;;;;;;;2.03;1.80;;;;;;;;;;5033705;28;20515;-59
2021/08/07 06:26:55;;;;;;;1.90;1.80;;;;;;;;;;5025291;28;20548;-60
2021/08/07 06:29:22;;;;;;;1.87;1.77;;;;;;;;;;5029875;28;20208;-59
2021/08/07 06:31:48;;;;;;;2.20;1.80;;;;;;;;;;5030070;28;20209;-59
2021/08/07 06:34:14;;;;;;;3.90;1.80;;;;;;;;;;5028152;28;20185;-61
2021/08/07 06:36:40;;;;;;;1.90;1.77;;;;;;;;;;5029708;28;20862;-59
2021/08/07 06:39:07;;;;;;;3.13;1.83;;;;;;;;;;5037034;28;20181;-59
2021/08/07 06:41:34;;;;;;;3.23;2.10;;;;;;;;;;5027828;28;20182;-59
2021/08/07 06:44:00;;;;;;;2.27;1.97;;;;;;;;;;5032597;28;20725;-61
2021/08/07 06:46:26;;;;;;;1.50;1.40;;;;;;;;;;5041178;28;20181;-59
2021/08/07 06:48:55;;;;;;;4.03;1.90;;;;;;;;;;5038075;28;20194;-59
2021/08/07 06:51:21;;;;;;;4.10;2.30;;;;;;;;;;5031927;28;20185;-60
2021/08/07 06:53:47;;;;;;;3.77;2.10;;;;;;;;;;5035779;28;20271;-60
2021/08/07 06:56:13;;;;;;;3.10;2.20;;;;;;;;;;5034866;28;20226;-62
2021/08/07 06:58:39;;;;;;;1.70;1.60;;;;;;;;;;5036683;28;20173;-59
2021/08/07 07:01:05;;;;;;;4.57;1.83;;;;;;;;;;5032301;28;20180;-59
2021/08/07 07:03:31;;;;;;;2.77;1.70;;;;;;;;;;5033352;28;20221;-59
2021/08/07 07:05:57;;;;;;;2.60;1.80;;;;;;;;;;5038775;28;20309;-59
2021/08/07 07:08:23;;;;;;;3.13;1.83;;;;;;;;;;5032491;28;20469;-61
2021/08/07 07:10:49;;;;;;;2.67;2.03;;;;;;;;;;5038274;28;20643;-58
2021/08/07 07:13:15;;;;;;;2.00;1.70;;;;;;;;;;5031642;28;20225;-60
2021/08/07 07:15:42;;;;;;;2.77;1.87;;;;;;;;;;5038056;28;20295;-60
2021/08/07 07:18:08;;;;;;;2.00;1.80;;;;;;;;;;5034309;28;20177;-59
2021/08/07 07:20:34;;;;;;;2.30;1.93;;;;;;;;;;5034570;28;20188;-59
2021/08/07 07:23:00;;;;;;;2.10;1.70;;;;;;;;;;5034937;28;20178;-60
2021/08/07 07:25:26;;;;;;;1.90;1.70;;;;;;;;;;5037017;28;20278;-62
2021/08/07 07:27:52;;;;;;;2.40;1.80;;;;;;;;;;5045568;28;20550;-60
2021/08/07 07:30:19;;;;;;;3.30;2.03;;;;;;;;;;5031057;28;20573;-60
2021/08/07 07:32:45;;;;;;;4.03;2.00;;;;;;;;;;5033716;28;20602;-60
2021/08/07 07:35:12;;;;;;;2.43;1.77;;;;;;;;;;5033294;28;20187;-59
2021/08/07 07:37:38;;;;;;;2.03;1.63;;;;;;;;;;5029424;28;20177;-59
2021/08/07 07:40:05;;;;;;;2.37;1.87;;;;;;;;;;5029177;28;20183;-58
2021/08/07 07:42:31;;;;;;;4.03;2.50;;;;;;;;;;5034408;28;20245;-61
2021/08/07 07:44:57;;;;;;;3.47;2.00;;;;;;;;;;5034944;28;20186;-61
2021/08/07 07:47:23;;;;;;;3.10;2.00;;;;;;;;;;5033407;28;20188;-61
2021/08/07 07:49:49;;;;;;;2.33;1.80;;;;;;;;;;5030647;28;20185;-59
2021/08/07 07:52:16;;;;;;;20.30;6.60;;;;;;;;;;5029425;28;20470;-59
2021/08/07 07:54:42;;;;;;;9.83;4.83;;;;;;;;;;5032073;28;20205;-61
2021/08/07 07:57:08;;;;;;;9.37;3.90;;;;;;;;;;5032097;28;20211;-60
2021/08/07 07:59:35;;;;;;;12.30;3.80;;;;;;;;;;5033935;28;20173;-57
2021/08/07 08:02:02;;;;;;;15.63;4.40;;;;;;;;;;5035844;28;20539;-59
2021/08/07 08:04:29;;;;;;;6.43;3.50;;;;;;;;;;5048622;28;20177;-57
2021/08/07 08:06:56;;;;;;;6.33;2.77;;;;;;;;;;5035134;28;20625;-56
2021/08/07 08:09:22;;;;;;;6.43;2.57;;;;;;;;;;5033066;28;20212;-58
2021/08/07 08:11:48;;;;;;;3.17;2.40;;;;;;;;;;5034106;28;20271;-58
2021/08/07 08:14:14;;;;;;;4.57;2.50;;;;;;;;;;5029339;28;20177;-57
2021/08/07 08:16:40;;;;;;;4.67;2.17;;;;;;;;;;5033886;28;20204;-59
2021/08/07 08:19:07;;;;;;;5.77;2.40;;;;;;;;;;5027619;28;20185;-59
2021/08/07 08:21:33;;;;;;;2.83;2.20;;;;;;;;;;5038555;28;20183;-57
2021/08/07 08:24:00;;;;;;;2.70;2.07;;;;;;;;;;5037166;28;20174;-57
2021/08/07 08:26:26;;;;;;;3.77;2.27;;;;;;;;;;5030557;28;20187;-58
2021/08/07 08:28:52;;;;;;;4.37;2.33;;;;;;;;;;5031044;28;20180;-57
2021/08/07 08:31:18;;;;;;;3.63;2.20;;;;;;;;;;5030726;28;20559;-57
2021/08/07 08:33:44;;;;;;;5.53;2.30;;;;;;;;;;5030088;28;20615;-58
2021/08/07 08:36:11;;;;;;;5.07;2.20;;;;;;;;;;5031441;28;20567;-61
2021/08/07 08:38:38;;;;;;;3.07;2.37;;;;;;;;;;5041244;28;20190;-59
2021/08/07 08:41:04;;;;;;;3.83;2.00;;;;;;;;;;5028530;28;20189;-57
2021/08/07 08:43:30;;;;;;;4.13;2.30;;;;;;;;;;5029397;28;20181;-57
2021/08/07 08:45:57;;;;;;;3.07;2.40;;;;;;;;;;5030847;28;20209;-57
2021/08/07 08:48:24;;;;;;;3.80;2.10;;;;;;;;;;5015430;28;20616;-59
2021/08/07 08:50:50;;;;;;;4.20;2.20;;;;;;;;;;5029775;28;20185;-60
2021/08/07 08:53:16;;;;;;;2.57;1.80;;;;;;;;;;5026579;28;20238;-60
2021/08/07 08:55:42;;;;;;;4.20;2.33;;;;;;;;;;5008172;28;20229;-60
2021/08/07 08:58:09;;;;;;;4.47;2.43;;;;;;;;;;5030416;28;20181;-60
2021/08/07 09:00:35;;;;;;;2.73;2.10;;;;;;;;;;5025547;28;20261;-61
2021/08/07 09:03:01;;;;;;;3.47;2.30;;;;;;;;;;5028255;28;20540;-61
2021/08/07 09:05:27;;;;;;;4.07;2.37;;;;;;;;;;5019796;28;20236;-60
2021/08/07 09:07:54;;;;;;;3.37;2.00;;;;;;;;;;5048241;28;20730;-61
2021/08/07 09:10:24;;;;;;;5.80;2.20;;;;;;;;;;5043000;28;20741;-60
2021/08/07 09:12:51;;;;;;;5.97;2.40;;;;;;;;;;5040408;28;20239;-60
2021/08/07 09:15:23;;;;;;;2.13;1.87;;;;;;;;;;5029430;28;20233;-60
2021/08/07 09:17:50;;;;;;;3.13;2.10;;;;;;;;;;5029675;28;20187;-61
2021/08/07 09:20:26;;;;;;;5.57;2.10;;;;;;;;;;5027263;28;20530;-62
2021/08/07 09:22:53;;;;;;;2.77;2.03;;;;;;;;;;5039201;28;20181;-60
2021/08/07 09:25:23;;;;;;;2.87;2.13;;;;;;;;;;5008691;28;20187;-60
2021/08/07 09:27:51;;;;;;;3.60;1.90;;;;;;;;;;5029056;28;20275;-60
2021/08/07 09:30:17;;;;;;;3.27;2.07;;;;;;;;;;5028950;28;20253;-60
2021/08/07 09:33:03;;;;;;;4.17;1.80;;;;;;;;;;5028743;28;20182;-60
2021/08/07 09:35:34;;;;;;;4.57;1.90;;;;;;;;;;5008548;28;20189;-60
2021/08/07 09:38:22;;;;;;;3.60;2.20;;;;;;;;;;5035171;28;20184;-60
2021/08/07 09:40:50;;;;;;;4.53;2.23;;;;;;;;;;5026089;28;20268;-60
2021/08/07 09:43:18;;;;;;;4.40;1.93;;;;;;;;;;5033707;28;20181;-60
2021/08/07 09:45:44;;;;;;;4.37;2.20;;;;;;;;;;5029177;28;20600;-62
2021/08/07 09:48:12;;;;;;;2.87;1.97;;;;;;;;;;5034866;28;20539;-60
2021/08/07 09:50:38;;;;;;;3.40;2.30;;;;;;;;;;5027723;28;20533;-60
2021/08/07 09:53:05;;;;;;;2.77;1.77;;;;;;;;;;5038818;28;20193;-61
2021/08/07 09:55:32;;;;;;;4.17;1.93;;;;;;;;;;5027194;28;20283;-60
2021/08/07 09:58:05;;;;;;;4.53;2.13;;;;;;;;;;5029139;28;20284;-60
2021/08/07 10:00:42;;;;;;;2.60;2.30;;;;;;;;;;5037311;28;20187;-60
2021/08/07 10:03:15;;;;;;;4.20;2.00;;;;;;;;;;5038707;28;20542;-61
2021/08/07 10:05:45;;;;;;;4.63;1.97;;;;;;;;;;5026474;28;20188;-61
2021/08/07 10:08:11;;;;;;;2.53;1.87;;;;;;;;;;5027401;28;20909;-61
2021/08/07 10:10:37;;;;;;;5.00;1.87;;;;;;;;;;5040437;28;20192;-60
2021/08/07 10:13:04;;;;;;;3.80;1.80;;;;;;;;;;5050357;28;20176;-60
2021/08/07 10:15:30;;;;;;;5.00;2.10;;;;;;;;;;5037429;28;20231;-59
2021/08/07 10:17:57;;;;;;;2.90;1.60;;;;;;;;;;5040300;28;20526;-59
2021/08/07 10:20:23;;;;;;;4.57;2.00;;;;;;;;;;5041554;28;20254;-59
2021/08/07 10:22:50;;;;;;;5.33;2.23;;;;;;;;;;5052984;28;20173;-60
2021/08/07 10:25:17;;;;;;;4.10;2.50;;;;;;;;;;5034819;28;20165;-60
2021/08/07 10:27:44;;;;;;;4.67;1.90;;;;;;;;;;5040242;28;20192;-59
2021/08/07 10:30:13;;;;;;;3.13;1.67;;;;;;;;;;5038672;28;20185;-60
2021/08/07 10:32:40;;;;;;;2.00;1.70;;;;;;;;;;5051819;28;20185;-62
2021/08/07 10:35:08;;;;;;;1.63;1.50;;;;;;;;;;5031546;28;20189;-60
2021/08/07 10:37:34;;;;;;;2.07;1.70;;;;;;;;;;5030401;28;20205;-58
2021/08/07 10:40:00;;;;;;;5.17;2.00;;;;;;;;;;5037307;28;20246;-61
2021/08/07 10:42:27;;;;;;;5.10;2.20;;;;;;;;;;5052882;28;20170;-59
2021/08/07 10:44:53;;;;;;;5.07;1.80;;;;;;;;;;5044286;28;20237;-60
2021/08/07 10:47:36;;;;;;;5.87;2.20;;;;;;;;;;5053169;28;20180;-59
2021/08/07 10:50:22;;;;;;;4.13;1.70;;;;;;;;;;5040115;28;20185;-60
2021/08/07 10:52:48;;;;;;;3.00;1.70;;;;;;;;;;5050234;28;20185;-59
2021/08/07 10:55:33;;;;;;;4.03;1.93;;;;;;;;;;5031852;28;20239;-59
2021/08/07 10:57:59;;;;;;;2.43;1.60;;;;;;;;;;5036003;28;20193;-60
2021/08/07 11:00:25;;;;;;;3.37;1.90;;;;;;;;;;5032045;28;20918;-60
2021/08/07 11:03:11;;;;;;;3.33;2.23;;;;;;;;;;5032232;28;20203;-61
2021/08/07 11:05:50;;;;;;;4.53;1.80;;;;;;;;;;5024785;28;20183;-61
2021/08/07 11:08:17;;;;;;;4.03;1.90;;;;;;;;;;5032333;28;20541;-61
2021/08/07 11:10:43;;;;;;;1.80;1.53;;;;;;;;;;5037982;28;20190;-60
2021/08/07 11:13:23;;;;;;;1.67;1.57;;;;;;;;;;5048476;28;20583;-60
2021/08/07 11:16:09;;;;;;;2.30;1.40;;;;;;;;;;5031580;28;20559;-61
2021/08/07 11:18:35;;;;;;;2.10;1.33;;;;;;;;;;5037771;28;20218;-63
2021/08/07 11:21:01;;;;;;;4.50;2.07;;;;;;;;;;5038900;28;20239;-60
2021/08/07 11:23:37;;;;;;;4.57;1.80;;;;;;;;;;5046106;28;20696;-62
2021/08/07 11:26:04;;;;;;;2.70;1.67;;;;;;;;;;5044989;28;20193;-60
2021/08/07 11:28:30;;;;;;;2.27;1.70;;;;;;;;;;5046148;28;20512;-61
2021/08/07 11:31:17;;;;;;;1.93;1.33;;;;;;;;;;5031878;28;20535;-61
2021/08/07 11:33:43;;;;;;;4.43;1.70;;;;;;;;;;5031945;28;20178;-60
2021/08/07 11:36:11;;;;;;;3.27;1.97;;;;;;;;;;5029044;28;20215;-61
2021/08/07 11:38:57;;;;;;;2.27;1.67;;;;;;;;;;5030335;28;20325;-60
2021/08/07 11:41:30;;;;;;;3.23;1.80;;;;;;;;;;5030212;28;20533;-60
2021/08/07 11:43:57;;;;;;;4.03;1.80;;;;;;;;;;5041060;28;20526;-60
2021/08/07 11:46:23;;;;;;;4.47;2.00;;;;;;;;;;5031889;28;20176;-60
2021/08/07 11:48:53;;;;;;;4.83;2.03;;;;;;;;;;5040245;28;20183;-60
2021/08/07 11:51:23;;;;;;;4.10;1.90;;;;;;;;;;5028095;28;20182;-60
2021/08/07 11:53:49;;;;;;;3.53;1.67;;;;;;;;;;5031964;28;20187;-60
2021/08/07 11:56:17;;;;;;;2.00;1.80;;;;;;;;;;5035298;28;20217;-61
2021/08/07 11:58:53;;;;;;;4.77;1.97;;;;;;;;;;5036186;28;20187;-61
2021/08/07 12:01:20;;;;;;;3.10;2.00;;;;;;;;;;5047113;28;20174;-61
2021/08/07 12:03:50;;;;;;;3.20;1.60;;;;;;;;;;5044353;28;20592;-62
2021/08/07 12:06:20;;;;;;;3.20;2.07;;;;;;;;;;5033227;28;20191;-62
2021/08/07 12:08:48;;;;;;;3.57;2.00;;;;;;;;;;5038543;28;20190;-61
2021/08/07 12:11:15;;;;;;;3.57;1.93;;;;;;;;;;5029709;28;20188;-61
2021/08/07 12:13:42;;;;;;;2.00;1.80;;;;;;;;;;5030432;28;20195;-61
2021/08/07 12:16:10;;;;;;;2.53;1.60;;;;;;;;;;5047087;28;20214;-61
2021/08/07 12:18:40;;;;;;;1.83;1.67;;;;;;;;;;5043078;28;20712;-60
2021/08/07 12:21:06;;;;;;;3.70;1.53;;;;;;;;;;5031182;28;20791;-61
2021/08/07 12:23:39;;;;;;;2.33;1.57;;;;;;;;;;5040412;28;20249;-62
2021/08/07 12:26:05;;;;;;;3.87;1.80;;;;;;;;;;5042959;28;20187;-61
2021/08/07 12:28:33;;;;;;;5.03;1.70;;;;;;;;;;5031422;28;20190;-61
2021/08/07 12:31:03;;;;;;;2.40;1.70;;;;;;;;;;5047680;28;20664;-62
2021/08/07 12:33:40;;;;;;;1.90;1.67;;;;;;;;;;5046215;28;20646;-61
2021/08/07 12:36:16;;;;;;;3.13;1.53;;;;;;;;;;5040953;28;20409;-61
2021/08/07 12:38:43;;;;;;;3.60;1.70;;;;;;;;;;5037675;28;20183;-62
2021/08/07 12:41:09;;;;;;;2.87;1.50;;;;;;;;;;5043968;28;20188;-62
2021/08/07 12:43:36;;;;;;;1.80;1.50;;;;;;;;;;5045317;28;20176;-60
2021/08/07 12:46:03;;;;;;;3.03;1.83;;;;;;;;;;5030198;28;20244;-61
2021/08/07 12:48:46;;;;;;;2.50;1.67;;;;;;;;;;5038829;28;20195;-61
2021/08/07 12:51:13;;;;;;;3.87;1.90;;;;;;;;;;5045924;28;20188;-63
2021/08/07 12:53:43;;;;;;;3.30;1.80;;;;;;;;;;5034257;28;20283;-63
2021/08/07 12:56:10;;;;;;;3.53;1.93;;;;;;;;;;5030816;28;20257;-62
2021/08/07 12:58:36;;;;;;;2.80;1.77;;;;;;;;;;5040146;28;20182;-62
2021/08/07 13:01:11;;;;;;;2.33;1.70;;;;;;;;;;5035869;28;20186;-62
2021/08/07 13:03:54;;;;;;;1.83;1.40;;;;;;;;;;5043555;28;20590;-62
2021/08/07 13:06:20;;;;;;;2.83;1.80;;;;;;;;;;5028274;28;20188;-62
2021/08/07 13:08:46;;;;;;;2.80;1.87;;;;;;;;;;5040303;28;20190;-62
2021/08/07 13:11:16;;;;;;;3.87;1.80;;;;;;;;;;5029747;28;20193;-62
2021/08/07 13:13:42;;;;;;;1.87;1.20;;;;;;;;;;5029644;28;20193;-61
2021/08/07 13:16:08;;;;;;;5.37;1.50;;;;;;;;;;5032331;28;20212;-62
2021/08/07 13:18:34;;;;;;;2.97;1.60;;;;;;;;;;5039132;28;20704;-61
2021/08/07 13:21:01;;;;;;;2.23;1.50;;;;;;;;;;5029771;28;20166;-61
2021/08/07 13:23:34;;;;;;;2.37;1.67;;;;;;;;;;5029039;28;20177;-61
2021/08/07 13:26:10;;;;;;;3.07;1.70;;;;;;;;;;5048275;28;20188;-62
2021/08/07 13:28:36;;;;;;;1.73;1.30;;;;;;;;;;5043556;28;20182;-62
2021/08/07 13:31:03;;;;;;;3.53;1.20;;;;;;;;;;5049590;28;20189;-62
2021/08/07 13:33:34;;;;;;;1.93;1.40;;;;;;;;;;5045411;28;20185;-64
2021/08/07 13:36:01;;;;;;;1.83;1.40;;;;;;;;;;5031034;28;20224;-62
2021/08/07 13:38:28;;;;;;;1.43;1.33;;;;;;;;;;5044327;28;20664;-62
2021/08/07 13:41:04;;;;;;;1.47;1.33;;;;;;;;;;5029339;28;20252;-62
2021/08/07 13:43:30;;;;;;;1.70;1.40;;;;;;;;;;5032414;28;20189;-63
2021/08/07 13:45:56;;;;;;;1.83;1.30;;;;;;;;;;5050228;28;20165;-62
2021/08/07 13:48:22;;;;;;;2.93;1.70;;;;;;;;;;5043932;28;20182;-63
2021/08/07 13:50:48;;;;;;;7.80;1.70;;;;;;;;;;5012165;28;20190;-62
2021/08/07 13:53:14;;;;;;;2.00;1.50;;;;;;;;;;5046954;28;20193;-61
2021/08/07 13:55:40;;;;;;;2.97;1.57;;;;;;;;;;5027239;28;20246;-62
2021/08/07 13:58:07;;;;;;;2.03;1.30;;;;;;;;;;5039209;28;20197;-62
2021/08/07 14:00:33;;;;;;;3.87;1.60;;;;;;;;;;5032055;28;20978;-61
2021/08/07 14:02:59;;;;;;;4.20;1.40;;;;;;;;;;5048832;28;20203;-63
2021/08/07 14:05:25;;;;;;;2.73;1.13;;;;;;;;;;5025902;28;20174;-62
2021/08/07 14:07:51;;;;;;;1.40;1.30;;;;;;;;;;5041831;28;20519;-64
2021/08/07 14:10:17;;;;;;;2.33;1.63;;;;;;;;;;5029226;28;20174;-62
2021/08/07 14:12:44;;;;;;;3.10;1.53;;;;;;;;;;5030086;28;20174;-62
2021/08/07 14:15:10;;;;;;;1.40;1.30;;;;;;;;;;5027679;28;20663;-62
2021/08/07 14:17:36;;;;;;;2.73;1.27;;;;;;;;;;5041795;28;20433;-62
2021/08/07 14:20:03;;;;;;;2.30;1.23;;;;;;;;;;5029253;28;20174;-62
2021/08/07 14:22:29;;;;;;;1.50;1.40;;;;;;;;;;5027956;28;20170;-62
2021/08/07 14:24:55;;;;;;;2.30;1.53;;;;;;;;;;5026098;28;20193;-61
2021/08/07 14:27:21;;;;;;;1.30;1.00;;;;;;;;;;5025891;28;20269;-63
2021/08/07 14:29:48;;;;;;;2.07;1.50;;;;;;;;;;5036940;28;20189;-62
2021/08/07 14:32:14;;;;;;;2.13;1.60;;;;;;;;;;5048670;28;20192;-62
2021/08/07 14:34:40;;;;;;;3.03;1.20;;;;;;;;;;5038272;28;20193;-62
2021/08/07 14:37:06;;;;;;;2.03;1.40;;;;;;;;;;5044791;28;20345;-62
2021/08/07 14:39:34;;;;;;;1.73;1.33;;;;;;;;;;5031536;28;20186;-62
2021/08/07 14:42:00;;;;;;;2.53;1.17;;;;;;;;;;5028689;28;20181;-63
2021/08/07 14:44:26;;;;;;;2.50;1.03;;;;;;;;;;5034068;28;20554;-61
2021/08/07 14:46:52;;;;;;;3.47;1.50;;;;;;;;;;5028967;28;20178;-62